• Join FlightAware (Why Join?)
  • Login
  • US Flag 
12:28PM EDT


 

Airport Tracker/Info


-or-


 

Live Flight TrackerFlight Track Log ✈ N704MT ✈ 05-May-2013 ✈ KBFR - KMDH

Flight Track Log - Related Links

Times and Time Zones

All times are in EDT time to prevent confusion due to time zone crossing. See the N704MT flight status page for this flight to view local times or setup timezone preferences in your user account.

Time Position Orientation Groundspeed Altitude Reporting Facility
EDT Latitude Longitude Course Direction KTS MPH feet Rate Location/Type
03:57PM 38.7933 -86.5253 233° Southwest 95 109 2,300  Level Indianapolis Center
03:58PM 38.7814 -86.5589 246° West 95 109 2,500 240 Climbing Indianapolis Center
04:01PM 38.7606 -86.6203 246° West 96 110 3,200 300 Climbing Indianapolis Center
04:02PM 38.7511 -86.6494 247° West 94 108 3,500 240 Climbing Indianapolis Center
04:03PM 38.7406 -86.6789 245° Southwest 91 105 3,700 180 Climbing Indianapolis Center
04:04PM 38.7286 -86.7139 246° West 90 104 3,900 60 Climbing Indianapolis Center
04:05PM 38.7158 -86.7467 243° Southwest 96 110 3,900  Level Indianapolis Center
04:06PM 38.7031 -86.7811 245° Southwest 103 119 3,900  Level Indianapolis Center
04:07PM 38.6908 -86.8161 246° West 106 122 3,900  Level Indianapolis Center
04:08PM 38.6792 -86.8503 246° West 106 122 3,900  Level Indianapolis Center
04:09PM 38.6661 -86.8844 244° Southwest 105 121 3,900  Level Indianapolis Center
04:10PM 38.6564 -86.9175 249° West 103 119 4,000  Climbing Indianapolis Center
04:11PM 38.6417 -86.9567 244° Southwest 102 117 3,900 -60 Descending Indianapolis Center
04:12PM 38.6303 -86.9889 246° West 101 116 3,900  Level Indianapolis Center
04:13PM 38.6186 -87.0217 246° West 100 115 4,000  Climbing Indianapolis Center
04:14PM 38.6069 -87.0539 245° Southwest 100 115 4,000  Level Indianapolis Center
04:15PM 38.5950 -87.0864 245° Southwest 100 115 4,000 -60 Level Indianapolis Center
04:16PM 38.5825 -87.1183 243° Southwest 100 115 3,900  Descending Indianapolis Center
04:17PM 38.5711 -87.1514 246° West 101 116 4,000  Climbing Indianapolis Center
04:18PM 38.5567 -87.1897 244° Southwest 100 115 3,900  Descending Indianapolis Center
04:19PM 38.5458 -87.2219 247° West 100 115 4,000  Climbing Indianapolis Center
04:21PM 38.5219 -87.2839 244° Southwest 98 113 4,000  Level Indianapolis Center
04:22PM 38.5097 -87.3161 244° Southwest 99 114 4,000  Level Indianapolis Center
04:23PM 38.4989 -87.3494 247° West 100 115 4,000  Level Indianapolis Center
04:24PM 38.4875 -87.3828 246° West 102 117 4,000  Level Indianapolis Center
04:25PM 38.4708 -87.4211 241° Southwest 102 117 4,000  Level Indianapolis Center
04:26PM 38.4581 -87.4522 242° Southwest 100 115 4,000  Level Indianapolis Center
04:27PM 38.4456 -87.4850 244° Southwest 101 116 4,000  Level Indianapolis Center
04:28PM 38.4333 -87.5164 244° Southwest 101 116 4,000  Level Indianapolis Center
04:29PM 38.4203 -87.5478 242° Southwest 100 115 4,000 -60 Level Indianapolis Center
04:30PM 38.4064 -87.5789 240° Southwest 100 115 3,900  Descending Indianapolis Center
04:31PM 38.3936 -87.6094 242° Southwest 99 114 4,000 60 Climbing Indianapolis Center
04:34PM 38.3672 -87.6800 245° Southwest 100 115 4,100  Climbing Kansas City Center
04:35PM 38.3564 -87.7144 248° West 102 117 4,000 -60 Descending Indianapolis Center
04:36PM 38.3436 -87.7478 244° Southwest 103 119 4,000  Level Indianapolis Center
04:37PM 38.3325 -87.7806 247° West 103 119 4,000 -60 Level Indianapolis Center
04:38PM 38.3203 -87.8136 245° Southwest 102 117 3,900 -60 Descending Indianapolis Center
04:39PM 38.3078 -87.8453 243° Southwest 101 116 3,900  Level Indianapolis Center
04:40PM 38.2928 -87.8819 242° Southwest 99 114 3,900  Level Indianapolis Center
04:41PM 38.2831 -87.9142 249° West 98 113 3,900  Level Indianapolis Center
04:42PM 38.2719 -87.9453 246° West 97 112 4,000  Climbing Indianapolis Center
04:43PM 38.2583 -87.9772 242° Southwest 99 114 3,900  Descending Indianapolis Center
04:44PM 38.2453 -88.0089 242° Southwest 100 115 4,000  Climbing Indianapolis Center
04:45PM 38.2339 -88.0408 246° West 100 115 4,000 -60 Level Indianapolis Center
04:46PM 38.2217 -88.0747 245° Southwest 102 117 3,900  Descending Indianapolis Center
04:47PM 38.2067 -88.1136 244° Southwest 102 117 4,000  Climbing Indianapolis Center
04:48PM 38.1953 -88.1453 245° Southwest 101 116 4,000 -60 Level Indianapolis Center
04:49PM 38.1811 -88.1772 241° Southwest 101 116 3,900 -60 Descending Indianapolis Center
04:50PM 38.1653 -88.2083 237° Southwest 102 117 3,900  Level Indianapolis Center
04:51PM 38.1533 -88.2428 246° West 104 120 3,900  Level Indianapolis Center
04:52PM 38.1431 -88.2761 249° West 104 120 3,900  Level Indianapolis Center
04:53PM 38.1311 -88.3094 246° West 103 119 3,900  Level Indianapolis Center
04:54PM 38.1194 -88.3419 245° Southwest 102 117 3,900  Level Indianapolis Center
04:55PM 38.1081 -88.3844 251° West 103 119 3,900  Level Indianapolis Center
04:56PM 38.0986 -88.4178 250° West 102 117 3,900  Level Indianapolis Center
04:57PM 38.0886 -88.4528 250° West 103 119 3,900  Level Indianapolis Center
04:58PM 38.0756 -88.4864 244° Southwest 104 120 3,900  Level Indianapolis Center
04:59PM 38.0628 -88.5206 245° Southwest 105 121 4,000  Climbing Indianapolis Center
05:01PM 38.0478 -88.5600 244° Southwest 105 121 4,000  Level Kansas City Center
05:02PM 38.0303 -88.5861 230° Southwest 101 116 4,100 -60 Climbing Kansas City Center
05:03PM 38.0097 -88.6136 227° Southwest 100 115 3,900 -60 Descending Kansas City Center
05:04PM 37.9917 -88.6369 226° Southwest 98 113 4,000  Climbing Kansas City Center
05:05PM 37.9700 -88.6647 225° Southwest 98 113 3,900 -60 Descending Kansas City Center
05:07PM 37.9289 -88.7047 218° Southwest  Level FlightAware Approximate
05:11PM 37.8367 -88.8267 225° Southwest 55 63 3,900  Level Kansas City Center
05:12PM 37.8114 -88.8547 221° Southwest 106 122 4,000  Climbing Kansas City Center
05:14PM 37.7862 -88.8805 225° Southwest  Level FlightAware Approximate
05:14PM 37.7833 -88.8891 224° Southwest  Level FlightAware Approximate
05:15PM 37.7661 -88.9056 225° Southwest  Level FlightAware Approximate
05:16PM 37.7460 -88.9307 225° Southwest  Level FlightAware Approximate
05:21PM 37.6412 -89.0628 224° Southwest  Level FlightAware Approximate
05:22PM 37.6209 -89.0876 224° Southwest  Level FlightAware Approximate
05:22PM 37.6356 -89.0828 270° West 127 146 4,000  Level Kansas City Center
05:23PM 37.6006 -89.1123 224° Southwest  Level FlightAware Approximate
05:23PM 37.6147 -89.1167 232° Southwest 122 140 3,700  Level Kansas City Center
05:24PM 37.5833 -89.1387 270° West  Level FlightAware Approximate
05:24PM 37.5919 -89.1408 220° Southwest 115 132 3,200  Level Kansas City Center
05:25PM 37.5834 -89.1744 270° West  Level FlightAware Approximate
05:26PM 37.5834 -89.2100 270° West  Level FlightAware Approximate
05:26PM 37.5844 -89.2156 263° West 110 127 2,600  Level Kansas City Center
05:27PM 37.5833 -89.2456 270° West  Level FlightAware Approximate
05:27PM 37.5831 -89.2469 267° West 103 119 2,600  Level Kansas City Center
05:28PM 37.5983 -89.2489 354° North 94 108 2,700 60 Climbing Kansas City Center
05:30PM 37.6450 -89.2500 North  Level FlightAware Approximate
05:37PM 37.7667 -89.2500 North  Level FlightAware Approximate
05:38PM 37.7781 -89.2520 North  Level Estimated
05:39PM 37.7781 -89.2520 North  Level Estimated
05:40PM 37.7781 -89.2520 North  Level Estimated
05:41PM 37.7781 -89.2520 North  Level Estimated